createdAt,value
2022-11-09T00:00:51.714Z,51.83
2022-11-09T00:03:21.319Z,57.85
2022-11-09T00:06:00.720Z,58.88
2022-11-09T00:08:30.215Z,60.93
2022-11-09T00:11:06.921Z,51.35
2022-11-09T00:13:41.351Z,58.20
2022-11-09T00:16:12.355Z,63.35
2022-11-09T00:18:45.941Z,74.10
2022-11-09T00:21:22.993Z,83.63
2022-11-09T00:23:51.510Z,86.82
2022-11-09T00:26:21.249Z,96.47
2022-11-09T00:31:23.154Z,96.85
2022-11-09T00:33:55.483Z,93.68
2022-11-09T00:36:25.858Z,88.13
2022-11-09T00:38:58.386Z,106.32
2022-11-09T00:41:27.746Z,98.47
2022-11-09T00:43:56.425Z,102.85
2022-11-09T00:46:25.436Z,98.43
2022-11-09T00:48:56.136Z,91.25
2022-11-09T00:51:24.832Z,81.75
2022-11-09T00:53:54.735Z,66.68
2022-11-09T00:56:24.442Z,70.57
2022-11-09T00:58:55.949Z,67.90
2022-11-09T01:01:25.492Z,73.97
2022-11-09T01:06:25.125Z,57.65
2022-11-09T01:08:53.830Z,58.22
2022-11-09T01:11:23.533Z,54.78
2022-11-09T01:13:54.398Z,57.95
2022-11-09T01:16:24.277Z,51.67
2022-11-09T01:18:56.968Z,51.17
2022-11-09T01:21:28.208Z,49.83
2022-11-09T01:23:58.547Z,53.72
2022-11-09T01:26:28.718Z,52.92
2022-11-09T01:28:57.263Z,56.67
2022-11-09T01:31:26.406Z,50.22
2022-11-09T01:33:54.120Z,47.63
2022-11-09T01:36:24.569Z,47.40
2022-11-09T01:38:52.485Z,47.85
2022-11-09T01:41:26.872Z,45.92
2022-11-09T01:44:09.487Z,42.47
2022-11-09T01:46:57.485Z,41.63
2022-11-09T01:49:57.453Z,46.55
2022-11-09T01:52:42.171Z,46.90
2022-11-09T01:55:16.924Z,43.95
2022-11-09T01:58:17.153Z,45.05
2022-11-09T02:00:49.294Z,45.30
2022-11-09T02:03:29.133Z,47.40
2022-11-09T02:05:59.574Z,49.13
2022-11-09T02:08:28.372Z,43.42
2022-11-09T02:11:12.568Z,46.80
2022-11-09T02:13:55.528Z,46.95
2022-11-09T02:16:23.411Z,47.35
2022-11-09T02:18:56.247Z,41.75
2022-11-09T02:21:29.897Z,42.97
2022-11-09T02:23:58.736Z,43.60
2022-11-09T02:26:48.202Z,44.65
2022-11-09T02:29:44.149Z,44.55
2022-11-09T02:32:24.179Z,40.47
2022-11-09T02:34:53.952Z,42.88
2022-11-09T02:37:50.176Z,41.78
2022-11-09T02:40:25.364Z,44.08
2022-11-09T02:42:54.753Z,41.42
2022-11-09T02:45:22.560Z,43.22
2022-11-09T02:47:50.214Z,43.67
2022-11-09T02:50:18.181Z,46.25
2022-11-09T02:52:45.687Z,44.85
2022-11-09T02:55:13.761Z,40.55
2022-11-09T02:57:41.691Z,38.38
2022-11-09T03:00:13.208Z,41.95
2022-11-09T03:02:41.875Z,42.28
2022-11-09T03:05:10.078Z,40.57
2022-11-09T03:07:41.144Z,41.72
2022-11-09T03:10:09.504Z,43.78
2022-11-09T03:12:37.478Z,46.05
2022-11-09T03:15:10.144Z,54.83
2022-11-09T03:17:42.364Z,41.33
2022-11-09T03:20:11.388Z,46.00
2022-11-09T03:22:40.308Z,44.65
2022-11-09T03:27:37.269Z,41.38
2022-11-09T03:30:06.571Z,43.58
2022-11-09T03:32:34.116Z,39.88
2022-11-09T03:35:01.993Z,38.42
2022-11-09T03:37:29.525Z,45.42
2022-11-09T03:39:57.321Z,44.53
2022-11-09T03:42:26.074Z,47.85
2022-11-09T03:44:53.861Z,43.88
2022-11-09T03:47:21.399Z,41.45
2022-11-09T03:49:49.212Z,48.03
2022-11-09T03:52:16.664Z,41.35
2022-11-09T03:54:44.452Z,41.10
2022-11-09T03:57:11.936Z,39.38
2022-11-09T03:59:39.697Z,42.08
2022-11-09T04:02:07.318Z,40.03
2022-11-09T04:04:35.189Z,41.13
2022-11-09T04:07:02.697Z,45.53
2022-11-09T04:09:30.593Z,40.90
2022-11-09T04:11:57.998Z,43.38
2022-11-09T04:14:25.772Z,38.25
2022-11-09T04:16:53.247Z,48.35
2022-11-09T04:19:21.078Z,40.25
2022-11-09T04:21:48.548Z,45.60
2022-11-09T04:24:16.584Z,46.35
2022-11-09T04:26:44.087Z,37.15
2022-11-09T04:29:11.945Z,45.78
2022-11-09T04:31:39.442Z,38.85
2022-11-09T04:34:07.260Z,46.80
2022-11-09T04:36:34.766Z,37.70
2022-11-09T04:39:02.562Z,41.63
2022-11-09T04:41:29.978Z,40.30
2022-11-09T04:43:57.779Z,38.53
2022-11-09T04:46:25.396Z,39.60
2022-11-09T04:48:53.214Z,36.05
2022-11-09T04:51:20.954Z,49.30
2022-11-09T04:53:48.786Z,37.20
2022-11-09T04:56:16.346Z,40.25
2022-11-09T04:58:44.268Z,44.53
2022-11-09T05:01:14.373Z,42.50
2022-11-09T05:03:42.827Z,36.35
2022-11-09T05:06:30.897Z,37.35
2022-11-09T05:09:01.503Z,36.92
2022-11-09T05:11:30.215Z,40.30
2022-11-09T05:13:59.295Z,43.22
2022-11-09T05:16:28.754Z,35.83
2022-11-09T05:18:56.608Z,34.42
2022-11-09T05:21:24.266Z,37.83
2022-11-09T05:24:01.638Z,40.80
2022-11-09T05:26:41.339Z,42.75
2022-11-09T05:29:11.909Z,40.03
2022-11-09T05:31:44.530Z,40.97
2022-11-09T05:34:15.716Z,39.38
2022-11-09T05:36:43.154Z,40.35
2022-11-09T05:39:11.110Z,38.00
2022-11-09T05:41:38.544Z,35.08
2022-11-09T05:44:06.411Z,40.58
2022-11-09T05:46:34.299Z,35.38
2022-11-09T05:49:02.075Z,36.78
2022-11-09T05:51:29.594Z,34.95
2022-11-09T05:53:57.464Z,41.92
2022-11-09T05:56:25.559Z,42.20
2022-11-09T05:58:53.450Z,36.33
2022-11-09T06:01:20.946Z,34.92
2022-11-09T06:03:48.859Z,32.75
2022-11-09T06:06:17.898Z,40.90
2022-11-09T06:08:45.800Z,38.38
2022-11-09T06:11:21.571Z,41.13
2022-11-09T06:13:52.485Z,38.97
2022-11-09T06:16:20.456Z,42.13
2022-11-09T06:18:48.296Z,38.65
2022-11-09T06:21:15.732Z,34.67
2022-11-09T06:23:43.549Z,42.47
2022-11-09T06:26:12.543Z,37.92
2022-11-09T06:28:41.947Z,37.85
2022-11-09T06:31:15.691Z,41.50
2022-11-09T06:33:43.756Z,45.85
2022-11-09T06:36:12.232Z,43.97
2022-11-09T06:38:40.563Z,44.33
2022-11-09T06:41:09.498Z,43.65
2022-11-09T06:43:38.103Z,46.80
2022-11-09T06:46:06.357Z,56.03
2022-11-09T06:48:34.691Z,63.95
2022-11-09T06:51:05.387Z,57.70
2022-11-09T06:53:38.018Z,45.55
2022-11-09T06:56:06.942Z,53.30
2022-11-09T06:58:34.959Z,50.40
2022-11-09T07:01:13.350Z,48.60
2022-11-09T07:03:41.568Z,42.70
2022-11-09T07:06:13.033Z,38.17
2022-11-09T07:08:41.865Z,46.20
2022-11-09T07:11:19.695Z,43.90
2022-11-09T07:13:56.199Z,39.15
2022-11-09T07:16:25.030Z,40.03
2022-11-09T07:18:52.763Z,48.55
2022-11-09T07:21:20.302Z,41.95
2022-11-09T07:23:49.309Z,37.40
2022-11-09T07:26:17.695Z,30.67
2022-11-09T07:28:45.485Z,41.20
2022-11-09T07:31:12.913Z,32.42
2022-11-09T07:33:40.692Z,31.23
2022-11-09T07:36:09.308Z,36.03
2022-11-09T07:38:37.095Z,32.63
2022-11-09T07:41:04.981Z,31.02
2022-11-09T07:43:32.779Z,34.00
2022-11-09T07:46:05.236Z,30.85
2022-11-09T07:48:33.215Z,31.90
2022-11-09T07:51:03.750Z,36.80
2022-11-09T07:53:31.870Z,33.92
2022-11-09T07:56:04.131Z,39.67
2022-11-09T07:58:33.074Z,31.50
2022-11-09T08:01:00.894Z,28.20
2022-11-09T08:03:28.707Z,33.42
2022-11-09T08:05:58.167Z,27.60
2022-11-09T08:08:26.049Z,33.40
2022-11-09T08:10:53.679Z,32.40
2022-11-09T08:13:21.866Z,32.97
2022-11-09T08:15:49.693Z,33.05
2022-11-09T08:18:21.070Z,36.10
2022-11-09T08:20:49.448Z,32.08
2022-11-09T08:23:21.067Z,29.83
2022-11-09T08:25:52.170Z,34.92
2022-11-09T08:28:20.478Z,33.72
2022-11-09T08:31:00.577Z,35.42
2022-11-09T08:33:35.583Z,29.00
2022-11-09T08:36:10.779Z,33.30
2022-11-09T08:38:39.109Z,29.52
2022-11-09T08:41:12.085Z,30.15
2022-11-09T08:43:54.944Z,33.63
2022-11-09T08:46:22.342Z,33.03
2022-11-09T08:48:50.312Z,36.80
2022-11-09T08:51:17.823Z,33.90
2022-11-09T08:53:45.784Z,29.55
2022-11-09T08:56:13.423Z,34.63
2022-11-09T08:58:44.614Z,33.45
2022-11-09T09:01:17.000Z,31.10
2022-11-09T09:03:46.744Z,32.33
2022-11-09T09:06:14.258Z,38.00
2022-11-09T09:08:42.129Z,28.73
2022-11-09T09:11:09.643Z,27.27
2022-11-09T09:13:42.104Z,33.75
2022-11-09T09:16:14.436Z,29.70
2022-11-09T09:18:42.963Z,26.08
2022-11-09T09:21:11.845Z,28.90
2022-11-09T09:23:39.931Z,30.48
2022-11-09T09:26:07.519Z,28.83
2022-11-09T09:28:35.497Z,28.02
2022-11-09T09:31:03.502Z,27.55
2022-11-09T09:33:31.375Z,27.15
2022-11-09T09:35:59.555Z,31.75
2022-11-09T09:38:29.239Z,31.30
2022-11-09T09:43:49.504Z,25.70
2022-11-09T09:47:06.269Z,29.38
2022-11-09T09:50:17.379Z,32.10
2022-11-09T09:53:24.604Z,30.90
2022-11-09T09:56:21.900Z,25.88
2022-11-09T09:59:33.877Z,32.33
2022-11-09T10:02:02.007Z,25.15
2022-11-09T10:04:38.141Z,28.00
2022-11-09T10:07:20.380Z,23.13
2022-11-09T10:10:09.665Z,20.80
2022-11-09T10:12:59.279Z,25.92
2022-11-09T10:18:46.428Z,19.80
2022-11-09T10:21:51.090Z,22.23
2022-11-09T10:24:32.243Z,22.52
2022-11-09T10:27:02.940Z,23.73
2022-11-09T10:29:47.246Z,25.08
2022-11-09T10:32:22.111Z,21.25
2022-11-09T10:35:17.331Z,23.98
2022-11-09T10:37:50.800Z,16.60
2022-11-09T10:40:30.600Z,20.90
2022-11-09T10:43:16.643Z,20.98
2022-11-09T10:46:07.343Z,18.58
2022-11-09T10:48:55.658Z,25.75
2022-11-09T10:51:48.026Z,17.27
2022-11-09T10:54:38.122Z,25.08
2022-11-09T10:57:25.849Z,20.38
2022-11-09T11:00:21.917Z,17.83
2022-11-09T11:03:18.257Z,17.70
2022-11-09T11:06:14.622Z,16.65
2022-11-09T11:09:01.039Z,18.63
2022-11-09T11:11:47.585Z,17.15
2022-11-09T11:14:41.789Z,17.20
2022-11-09T11:17:37.814Z,20.33
2022-11-09T11:20:37.238Z,18.35
2022-11-09T11:23:26.486Z,16.60
2022-11-09T11:26:30.410Z,20.55
2022-11-09T11:29:19.130Z,18.70
2022-11-09T11:35:34.276Z,20.98
2022-11-09T11:38:53.724Z,13.48
2022-11-09T11:41:42.699Z,19.60
2022-11-09T11:45:25.527Z,24.05
2022-11-09T11:48:40.832Z,15.60
2022-11-09T11:52:02.001Z,16.70
2022-11-09T11:55:20.736Z,19.00
2022-11-09T11:59:02.791Z,17.17
2022-11-09T12:02:27.089Z,13.27
2022-11-09T12:05:34.316Z,15.35
2022-11-09T12:08:36.662Z,14.73
2022-11-09T12:11:41.428Z,12.20
2022-11-09T12:14:37.223Z,16.75
2022-11-09T12:17:52.461Z,14.60
2022-11-09T12:21:18.227Z,14.57
2022-11-09T12:24:25.028Z,18.20
2022-11-09T12:27:35.241Z,18.60
2022-11-09T12:31:09.681Z,14.75
2022-11-09T12:34:15.151Z,13.68
2022-11-09T12:37:13.622Z,14.05
2022-11-09T12:40:31.231Z,15.87
2022-11-09T12:43:46.854Z,19.50
2022-11-09T12:46:43.704Z,16.05
2022-11-09T12:49:42.141Z,14.88
2022-11-09T12:52:31.183Z,15.60
2022-11-09T12:55:34.825Z,13.05
2022-11-09T12:58:26.979Z,13.95
2022-11-09T13:01:33.891Z,13.85
2022-11-09T13:04:24.024Z,12.98
2022-11-09T13:07:27.922Z,17.33
2022-11-09T13:10:43.700Z,16.15
2022-11-09T13:13:30.584Z,17.38
2022-11-09T13:16:36.189Z,22.05
2022-11-09T13:19:41.098Z,16.05
2022-11-09T13:22:27.112Z,13.88
2022-11-09T13:25:53.204Z,22.67
2022-11-09T13:28:44.203Z,18.52
2022-11-09T13:32:10.846Z,13.70
2022-11-09T13:34:59.862Z,13.13
2022-11-09T13:37:55.113Z,12.00
2022-11-09T13:40:45.000Z,11.40
2022-11-09T13:43:32.792Z,14.38
2022-11-09T13:46:32.138Z,13.02
2022-11-09T13:49:41.177Z,16.63
2022-11-09T13:52:53.340Z,13.57
2022-11-09T13:55:42.390Z,15.10
2022-11-09T13:58:36.815Z,21.52
2022-11-09T14:01:34.143Z,19.92
2022-11-09T14:04:27.770Z,13.02
2022-11-09T14:07:20.610Z,20.23
2022-11-09T14:10:44.515Z,20.30
2022-11-09T14:14:12.795Z,24.00
2022-11-09T14:17:10.960Z,23.35
2022-11-09T14:20:17.340Z,25.13
2022-11-09T14:23:03.493Z,21.02
2022-11-09T14:25:50.746Z,24.00
2022-11-09T14:28:37.389Z,28.83
2022-11-09T14:31:30.899Z,44.33
2022-11-09T14:34:18.232Z,54.95
2022-11-09T14:37:06.700Z,50.40
2022-11-09T14:39:54.243Z,44.78
2022-11-09T14:42:45.904Z,38.38
2022-11-09T14:45:33.166Z,42.78
2022-11-09T14:48:22.777Z,43.85
2022-11-09T14:51:14.647Z,35.95
2022-11-09T14:54:02.996Z,34.17
2022-11-09T14:56:49.545Z,33.70
2022-11-09T14:59:36.473Z,35.53
2022-11-09T15:02:24.639Z,44.42
2022-11-09T15:05:35.665Z,35.47
2022-11-09T15:08:23.329Z,32.60
2022-11-09T15:11:10.121Z,45.20
2022-11-09T15:13:56.010Z,43.33
2022-11-09T15:16:44.038Z,49.67
2022-11-09T15:19:34.827Z,54.55
2022-11-09T15:22:58.397Z,46.30
2022-11-09T15:25:47.053Z,51.80
2022-11-09T15:28:44.047Z,48.03
2022-11-09T15:31:30.451Z,51.75
2022-11-09T15:34:40.191Z,52.15
2022-11-09T15:40:35.712Z,56.28
2022-11-09T15:43:21.529Z,52.92
2022-11-09T15:46:11.079Z,55.80
2022-11-09T15:49:17.582Z,55.03
2022-11-09T15:52:04.501Z,53.75
2022-11-09T15:54:51.065Z,62.40
2022-11-09T15:57:37.239Z,52.78
2022-11-09T16:00:24.163Z,55.78
2022-11-09T16:03:11.629Z,54.65
2022-11-09T16:05:59.375Z,48.50
2022-11-09T16:08:51.066Z,52.72
2022-11-09T16:11:39.109Z,59.85
2022-11-09T16:14:25.656Z,55.30
2022-11-09T16:17:12.162Z,51.80
2022-11-09T16:19:58.374Z,59.40
2022-11-09T16:22:44.386Z,108.15
2022-11-09T16:25:31.062Z,87.57
2022-11-09T16:28:19.049Z,80.25
2022-11-09T16:31:06.014Z,81.07
2022-11-09T16:33:52.103Z,92.22
2022-11-09T16:36:44.575Z,80.65
2022-11-09T16:39:35.745Z,76.70
2022-11-09T16:42:22.030Z,59.75
2022-11-09T16:45:15.809Z,60.00
2022-11-09T16:48:10.187Z,53.17
2022-11-09T16:50:56.221Z,51.42
2022-11-09T16:53:42.419Z,62.60
2022-11-09T16:56:28.129Z,62.38
2022-11-09T16:59:15.846Z,73.95
2022-11-09T17:02:03.002Z,76.10
2022-11-09T17:04:49.341Z,70.53
2022-11-09T17:07:42.095Z,74.10
2022-11-09T17:10:29.140Z,73.43
2022-11-09T17:13:15.269Z,71.90
2022-11-09T17:16:07.265Z,65.97
2022-11-09T17:18:57.490Z,65.88
2022-11-09T17:21:43.935Z,65.03
2022-11-09T17:24:31.356Z,65.07
2022-11-09T17:27:17.914Z,64.03
2022-11-09T17:30:05.703Z,58.40
2022-11-09T17:32:53.050Z,63.88
2022-11-09T17:35:40.200Z,62.25
2022-11-09T17:38:28.376Z,67.85
2022-11-09T17:41:19.098Z,63.22
2022-11-09T17:44:05.921Z,75.90
2022-11-09T17:46:51.615Z,64.93
2022-11-09T17:49:37.857Z,69.63
2022-11-09T17:52:24.166Z,58.47
2022-11-09T17:55:10.862Z,65.07
2022-11-09T17:57:57.002Z,62.20
2022-11-09T18:00:43.988Z,58.72
2022-11-09T18:03:36.476Z,59.00
2022-11-09T18:06:24.430Z,57.90
2022-11-09T18:09:39.851Z,58.22
2022-11-09T18:12:18.162Z,58.45
2022-11-09T18:15:05.414Z,58.22
2022-11-09T18:17:51.730Z,63.00
2022-11-09T18:20:39.895Z,63.08
2022-11-09T18:23:26.637Z,66.70
2022-11-09T18:26:14.157Z,61.67
2022-11-09T18:29:00.389Z,65.95
2022-11-09T18:31:46.607Z,57.92
2022-11-09T18:34:33.829Z,60.70
2022-11-09T18:37:19.976Z,71.50
2022-11-09T18:40:08.135Z,65.55
2022-11-09T18:42:54.820Z,57.42
2022-11-09T18:45:41.923Z,62.88
2022-11-09T18:48:29.255Z,60.05
2022-11-09T18:51:15.709Z,59.53
2022-11-09T18:54:01.637Z,69.60
2022-11-09T18:59:40.114Z,71.43
2022-11-09T19:02:26.551Z,64.10
2022-11-09T19:05:16.444Z,65.38
2022-11-09T19:08:03.109Z,59.75
2022-11-09T19:10:49.342Z,62.85
2022-11-09T19:13:36.081Z,62.80
2022-11-09T19:16:23.599Z,58.90
2022-11-09T19:19:14.637Z,59.90
2022-11-09T19:22:01.087Z,67.30
2022-11-09T19:24:48.324Z,66.90
2022-11-09T19:27:34.343Z,63.63
2022-11-09T19:30:20.555Z,61.72
2022-11-09T19:33:06.959Z,62.85
2022-11-09T19:36:23.348Z,62.38
2022-11-09T19:38:59.922Z,63.80
2022-11-09T19:41:47.982Z,69.40
2022-11-09T19:44:34.076Z,71.47
2022-11-09T19:47:20.166Z,67.78
2022-11-09T19:50:08.065Z,71.88
2022-11-09T19:52:55.886Z,67.97
2022-11-09T19:55:42.942Z,73.95
2022-11-09T19:58:29.241Z,74.85
2022-11-09T20:01:15.891Z,72.65
2022-11-09T20:04:05.260Z,79.97
2022-11-09T20:06:53.613Z,81.75
2022-11-09T20:09:40.123Z,81.07
2022-11-09T20:12:44.506Z,74.03
2022-11-09T20:15:32.507Z,76.80
2022-11-09T20:18:20.579Z,75.05
2022-11-09T20:21:07.175Z,73.70
2022-11-09T20:23:53.889Z,68.40
2022-11-09T20:26:41.178Z,68.75
2022-11-09T20:29:27.350Z,73.57
2022-11-09T20:32:14.864Z,64.40
2022-11-09T20:35:04.666Z,62.35
2022-11-09T20:37:51.124Z,64.97
2022-11-09T20:40:36.806Z,64.35
2022-11-09T20:43:24.526Z,71.28
2022-11-09T20:46:18.212Z,63.53
2022-11-09T20:49:09.293Z,72.90
2022-11-09T20:51:55.930Z,68.90
2022-11-09T20:54:42.059Z,62.78
2022-11-09T20:57:27.766Z,62.72
2022-11-09T21:00:15.937Z,64.95
2022-11-09T21:03:05.985Z,63.38
2022-11-09T21:06:00.184Z,63.33
2022-11-09T21:08:51.855Z,62.90
2022-11-09T21:12:00.867Z,61.03
2022-11-09T21:14:49.897Z,64.43
2022-11-09T21:17:36.414Z,60.28
2022-11-09T21:20:28.565Z,64.57
2022-11-09T21:23:15.269Z,56.95
2022-11-09T21:26:20.967Z,61.08
2022-11-09T21:29:35.409Z,59.80
2022-11-09T21:32:23.011Z,58.20
2022-11-09T21:35:09.605Z,60.08
2022-11-09T21:38:00.188Z,56.20
2022-11-09T21:40:47.516Z,62.30
2022-11-09T21:43:33.498Z,54.65
2022-11-09T21:46:20.586Z,54.58
2022-11-09T21:49:08.482Z,52.00
2022-11-09T21:51:57.347Z,58.33
2022-11-09T21:55:15.234Z,51.95
2022-11-09T21:58:02.218Z,50.55
2022-11-09T22:00:48.888Z,51.92
2022-11-09T22:03:35.902Z,52.50
2022-11-09T22:06:22.876Z,50.75
2022-11-09T22:09:18.775Z,44.53
2022-11-09T22:13:34.760Z,48.65
2022-11-09T22:16:25.395Z,46.17
2022-11-09T22:23:07.255Z,43.70
2022-11-09T22:26:07.050Z,42.30
2022-11-09T22:29:03.892Z,44.15
2022-11-09T22:33:25.932Z,43.90
2022-11-09T22:36:15.178Z,46.22
2022-11-09T22:39:09.734Z,41.67
2022-11-09T22:42:03.061Z,47.15
2022-11-09T22:45:04.425Z,48.85
2022-11-09T22:48:00.196Z,49.80
2022-11-09T22:51:05.820Z,49.75
2022-11-09T22:54:03.193Z,47.80
2022-11-09T22:56:53.136Z,52.67
2022-11-09T22:59:47.334Z,45.53
2022-11-09T23:02:41.679Z,49.35
2022-11-09T23:05:35.232Z,46.95
2022-11-09T23:08:43.212Z,51.80
2022-11-09T23:11:32.725Z,49.53
2022-11-09T23:14:45.835Z,53.25
2022-11-09T23:18:08.980Z,49.10
2022-11-09T23:21:03.461Z,60.03
2022-11-09T23:23:59.413Z,53.47
2022-11-09T23:26:49.697Z,51.92
2022-11-09T23:29:38.466Z,55.10
2022-11-09T23:32:26.715Z,52.97
2022-11-09T23:35:13.676Z,53.65
2022-11-09T23:38:01.427Z,59.10
2022-11-09T23:40:48.582Z,56.55
2022-11-09T23:43:36.267Z,60.00
2022-11-09T23:46:22.674Z,51.63
2022-11-09T23:49:08.662Z,54.35
2022-11-09T23:51:55.081Z,57.58
2022-11-09T23:54:41.203Z,50.13
2022-11-09T23:57:28.360Z,51.80
